Ruth M Reinauer — WDE7186 — position and weather

sailwx.info

Track history (hours):
 
Tides and Currents Weather Stations Pressure Air Temp Water Temp Dewpoint Dewpoint Depression Visibility Wind Speed Wind Dir Waves Ship Positions

Ruth M Reinauer

Owner: H.A. Reinauer, Staten Island, NY. More information available from US FCC via Universal Licensing System and Coast Guard Vessel Documentation Center.

Last reported at 2017-Oct-21 16:40 UTC. Time now 2017-Oct-22 08:28 UTC.
Position N 40°54' W 073°42'.

Length 151 m; draft 5.1 m.

Type: . MMSI: 367390130.

Date/timePositionNaut miles runAvg speedWind from/ knotsBaromVisibWave heightAir tempDewpointWater temp
2017-Oct-21 16:40N 40°54' W 073°42'4 8.0
2017-Oct-21 16:12N 40°51' W 073°45'2 8.0
2017-Oct-21 15:58N 40°50' W 073°47'3 5.9
2017-Oct-21 15:30N 40°48' W 073°50'4 7.7
2017-Oct-21 14:56N 40°47' W 073°55'7 7.5
2017-Oct-21 14:00N 40°41' W 074°01'3 6.9
2017-Oct-21 13:30N 40°38' W 074°03'4 7.3
2017-Oct-21 13:00N 40°35' W 074°02'3 7.1
2017-Oct-21 12:30N 40°32' W 074°01'4 7.5
2017-Oct-21 11:58N 40°30' W 073°56'2 3.7
2017-Oct-21 11:30N 40°28' W 073°55'2 3.0
2017-Oct-21 10:57N 40°27' W 073°55'1 2.9
2017-Oct-21 10:30N 40°25' W 073°55'1 2.5
2017-Oct-21 10:01N 40°24' W 073°55'2 3.1
2017-Oct-21 09:29N 40°22' W 073°55'2 3.5
2017-Oct-21 09:01N 40°21' W 073°55'2 3.7
2017-Oct-21 08:25N 40°19' W 073°55'22 5.7
2017-Oct-21 04:34N 39°57' W 073°56'1 8.3
2017-Oct-21 04:29N 39°56' W 073°57'5 8.3
2017-Oct-21 03:51N 39°51' W 073°57'3 8.3
2017-Oct-21 03:30N 39°48' W 073°57'4 8.3
2017-Oct-21 03:00N 39°44' W 073°59'4 8.5
2017-Oct-21 02:30N 39°40' W 074°01'4 8.5
2017-Oct-21 01:59N 39°36' W 074°04'4 8.5
2017-Oct-21 01:27N 39°32' W 074°06'59 8.1
2017-Oct-20 18:15N 38°48' W 074°57'4 8.0
2017-Oct-20 17:44N 38°49' W 075°02'3 9.7
2017-Oct-20 17:25N 38°52' W 075°04'410.0
2017-Oct-20 16:58N 38°56' W 075°06'4 9.6
2017-Oct-20 16:30N 38°60' W 075°08'5 9.1
2017-Oct-20 16:00N 39°04' W 075°11'4 8.3
2017-Oct-20 15:30N 39°08' W 075°13'4 7.7
2017-Oct-20 15:00N 39°11' W 075°16'7 6.6
2017-Oct-20 14:00N 39°16' W 075°21'3 6.1
2017-Oct-20 13:30N 39°19' W 075°24'3 6.4
2017-Oct-20 13:00N 39°21' W 075°26'3 6.9
2017-Oct-20 12:31N 39°24' W 075°29'4 7.5
2017-Oct-20 12:00N 39°26' W 075°33'4 7.9
2017-Oct-20 11:31N 39°30' W 075°33'4 8.2
2017-Oct-20 11:01N 39°34' W 075°34'2 3.2
2017-Oct-20 10:31N 39°35' W 075°36'0 0.0
2017-Oct-20 10:01N 39°35' W 075°36'0 0.0
2017-Oct-20 09:29N 39°35' W 075°36'0 0.0
2017-Oct-20 09:00N 39°35' W 075°36'0 0.0
2017-Oct-20 08:30N 39°35' W 075°36'0 0.0
2017-Oct-20 08:00N 39°35' W 075°36'0 0.0
2017-Oct-20 07:30N 39°35' W 075°36'0 0.0
2017-Oct-20 07:00N 39°35' W 075°36'0 0.0
2017-Oct-20 06:29N 39°35' W 075°36'0 0.0
2017-Oct-20 05:59N 39°35' W 075°36'0 0.0
2017-Oct-20 05:30N 39°35' W 075°36'0 0.0
2017-Oct-20 05:00N 39°35' W 075°36'0 0.0
2017-Oct-20 04:30N 39°35' W 075°36'0 0.0
2017-Oct-20 03:59N 39°35' W 075°36'0 0.0
2017-Oct-20 03:29N 39°35' W 075°36'0 0.0
2017-Oct-20 03:00N 39°35' W 075°36'0 0.0
2017-Oct-20 02:30N 39°35' W 075°36'0 0.0
2017-Oct-20 01:59N 39°35' W 075°36'0 0.0
2017-Oct-20 01:29N 39°35' W 075°36'0 0.0
2017-Oct-20 01:00N 39°35' W 075°36'0 0.0
2017-Oct-20 00:30N 39°35' W 075°36'0 0.0
2017-Oct-20 00:00N 39°35' W 075°36'0 0.0
2017-Oct-19 23:30N 39°35' W 075°36'0 0.0
2017-Oct-19 23:00N 39°35' W 075°36'0 0.0
2017-Oct-19 22:30N 39°35' W 075°36'0 0.0
2017-Oct-19 22:00N 39°35' W 075°36'0 0.0
2017-Oct-19 21:30N 39°35' W 075°36'0 0.0
2017-Oct-19 21:00N 39°35' W 075°36'0 0.0
2017-Oct-19 20:30N 39°35' W 075°36'0 0.0
2017-Oct-19 20:00N 39°35' W 075°36'0 0.0
2017-Oct-19 19:30N 39°35' W 075°36'0 0.0
2017-Oct-19 19:00N 39°35' W 075°36'0 0.0
2017-Oct-19 18:30N 39°35' W 075°36'0 0.0
2017-Oct-19 18:00N 39°35' W 075°36'0 0.0
2017-Oct-19 17:30N 39°35' W 075°36'0 0.0
2017-Oct-19 16:57N 39°35' W 075°36'0 0.0
2017-Oct-19 16:30N 39°35' W 075°36'0 0.0
2017-Oct-19 16:00N 39°35' W 075°36'0 0.0
2017-Oct-19 15:30N 39°35' W 075°36'0 0.0
2017-Oct-19 15:00N 39°35' W 075°36'0 0.0
2017-Oct-19 14:29N 39°35' W 075°36'0 0.0
2017-Oct-19 13:59N 39°35' W 075°36'0 0.0
2017-Oct-19 13:29N 39°35' W 075°36'0 0.0
2017-Oct-19 12:59N 39°35' W 075°36'0 0.0
2017-Oct-19 12:29N 39°35' W 075°36'0 0.0
2017-Oct-19 11:59N 39°35' W 075°36'0 0.0
2017-Oct-19 11:29N 39°35' W 075°36'0 0.0
2017-Oct-19 11:00N 39°35' W 075°36'0 0.0
2017-Oct-19 10:29N 39°35' W 075°36'0 0.0
2017-Oct-19 09:59N 39°35' W 075°36'0 0.0
2017-Oct-19 09:29N 39°35' W 075°36'0 0.0
2017-Oct-19 08:59N 39°35' W 075°36'1 2.7
2017-Oct-19 08:31N 39°34' W 075°34'3 5.2
2017-Oct-19 08:00N 39°32' W 075°33'2 4.5
2017-Oct-19 07:31N 39°30' W 075°33'3 5.5
2017-Oct-19 07:00N 39°27' W 075°33'3 6.3
2017-Oct-19 06:31N 39°25' W 075°31'4 7.1
2017-Oct-19 06:01N 39°22' W 075°28'4 7.4
2017-Oct-19 05:31N 39°20' W 075°25'4 7.8
2017-Oct-19 05:00N 39°17' W 075°21'4 8.1
2017-Oct-19 04:30N 39°14' W 075°18'4 8.3
2017-Oct-19 04:00N 39°10' W 075°15'4 8.6
2017-Oct-19 03:30N 39°06' W 075°12'4 8.6
2017-Oct-19 03:00N 39°02' W 075°10'4 8.7
2017-Oct-19 02:30N 38°58' W 075°08'4 8.9
2017-Oct-19 02:00N 38°54' W 075°05'5 9.0
2017-Oct-19 01:30N 38°50' W 075°03'4 8.4
2017-Oct-19 01:00N 38°48' W 074°58'5 9.1
2017-Oct-19 00:27N 38°50' W 074°52'8 8.6
2017-Oct-18 23:28N 38°56' W 074°45'4 8.9
2017-Oct-18 23:00N 38°59' W 074°41'5 8.9
2017-Oct-18 22:26N 39°03' W 074°36'32 8.8
2017-Oct-18 18:51N 39°27' W 074°10'4 8.8
2017-Oct-18 18:22N 39°30' W 074°06'6 8.9
2017-Oct-18 17:42N 39°34' W 074°01'2 8.9
2017-Oct-18 17:30N 39°35' W 073°59'6 9.0
2017-Oct-18 16:48N 39°39' W 073°53'212 7.7
2017-Oct-17 13:30N 42°12' W 070°38'4 9.1
2017-Oct-17 13:00N 42°16' W 070°41'4 8.0
2017-Oct-17 12:30N 42°18' W 070°45'4 8.4
2017-Oct-17 12:00N 42°19' W 070°50'4 7.5
2017-Oct-17 11:31N 42°19' W 070°55'4 7.1
2017-Oct-17 11:01N 42°15' W 070°57'2 3.5
2017-Oct-17 10:30N 42°15' W 070°59'0 0.0
2017-Oct-17 09:46N 42°15' W 070°59'0 0.0
2017-Oct-17 09:25N 42°15' W 070°59'0 0.0
2017-Oct-17 08:25N 42°15' W 070°59'0 0.0
2017-Oct-17 07:55N 42°15' W 070°59'0 0.0
2017-Oct-17 07:25N 42°15' W 070°59'0 0.0
2017-Oct-17 06:55N 42°15' W 070°59'0 0.0
2017-Oct-17 06:31N 42°15' W 070°59'0 0.0
2017-Oct-17 05:55N 42°15' W 070°59'0 0.0
2017-Oct-17 05:13N 42°15' W 070°59'0 0.0
2017-Oct-17 05:01N 42°15' W 070°59'0 0.0
2017-Oct-17 02:58N 42°15' W 070°59'0 0.0
2017-Oct-17 02:22N 42°15' W 070°59'0 0.0
2017-Oct-17 01:58N 42°15' W 070°59'0 0.0
2017-Oct-17 01:28N 42°15' W 070°59'0 0.0
2017-Oct-17 00:58N 42°15' W 070°59'0 0.0
2017-Oct-17 00:28N 42°15' W 070°59'0 0.0
2017-Oct-16 23:58N 42°15' W 070°59'0 0.0
2017-Oct-16 23:28N 42°15' W 070°59'0 0.0
2017-Oct-16 22:58N 42°15' W 070°59'0 0.0
2017-Oct-16 22:28N 42°15' W 070°59'0 0.0
2017-Oct-16 21:52N 42°15' W 070°59'0 0.0
2017-Oct-16 21:22N 42°15' W 070°59'0 0.0
2017-Oct-16 20:58N 42°15' W 070°59'0 0.0
2017-Oct-16 20:28N 42°15' W 070°59'0 0.0
2017-Oct-16 19:58N 42°15' W 070°59'0 0.0
2017-Oct-16 19:22N 42°15' W 070°59'0 0.0
2017-Oct-16 18:58N 42°15' W 070°59'0 0.0
2017-Oct-16 18:28N 42°15' W 070°59'0 0.0
2017-Oct-16 17:58N 42°15' W 070°59'0 0.0
2017-Oct-16 17:04N 42°15' W 070°59'0 0.1
2017-Oct-16 16:58N 42°15' W 070°59'0 0.0
2017-Oct-16 16:28N 42°15' W 070°59'0 0.0
2017-Oct-16 15:58N 42°15' W 070°59'0 0.0
2017-Oct-16 15:16N 42°15' W 070°59'0 0.0
2017-Oct-16 14:55N 42°15' W 070°59'0 0.0
2017-Oct-16 14:01N 42°15' W 070°59'0 0.0
2017-Oct-16 13:28N 42°15' W 070°59'0 0.0
2017-Oct-16 13:00N 42°15' W 070°59'0 0.8
2017-Oct-16 12:30N 42°15' W 070°59'2 4.0
2017-Oct-16 12:00N 42°16' W 070°56'3 6.6
2017-Oct-16 11:30N 42°19' W 070°55'3 5.8
2017-Oct-16 11:00N 42°19' W 070°51'0 0.1
2017-Oct-16 10:30N 42°19' W 070°51'0 0.0
2017-Oct-16 10:00N 42°19' W 070°51'0 0.2
2017-Oct-16 09:30N 42°19' W 070°51'0 0.1
2017-Oct-16 09:00N 42°19' W 070°51'0 0.0
2017-Oct-16 08:30N 42°19' W 070°51'0 0.1
2017-Oct-16 08:00N 42°19' W 070°51'0 0.0
2017-Oct-16 07:30N 42°19' W 070°51'0 0.0
2017-Oct-16 07:00N 42°19' W 070°51'0 0.0
2017-Oct-16 06:30N 42°19' W 070°51'0 0.0
2017-Oct-16 06:00N 42°19' W 070°51'0 0.1
2017-Oct-16 05:30N 42°19' W 070°51'0 0.1
2017-Oct-16 05:00N 42°19' W 070°51'0 0.0
2017-Oct-16 04:30N 42°19' W 070°51'0 0.1
2017-Oct-16 04:00N 42°19' W 070°51'0 0.0
2017-Oct-16 03:31N 42°19' W 070°51'0 0.1
2017-Oct-16 03:00N 42°19' W 070°51'0 0.1
2017-Oct-16 02:30N 42°19' W 070°51'0 0.0
2017-Oct-16 02:01N 42°19' W 070°51'0 0.0
2017-Oct-16 01:30N 42°19' W 070°51'0 0.1
2017-Oct-16 01:00N 42°19' W 070°51'0 0.1
2017-Oct-16 00:30N 42°19' W 070°51'0 0.1
2017-Oct-16 00:00N 42°19' W 070°51'0 0.1
2017-Oct-15 23:30N 42°19' W 070°51'0 0.1
2017-Oct-15 23:00N 42°19' W 070°51'1 2.2
2017-Oct-15 22:30N 42°19' W 070°49'4 8.7
2017-Oct-15 22:00N 42°17' W 070°44'4 7.9
2017-Oct-15 21:31N 42°14' W 070°40'58 6.5
2017-Oct-15 12:38N 41°25' W 071°22'13 9.2
2017-Oct-15 11:14N 41°38' W 071°18'4 8.6
2017-Oct-15 10:48N 41°41' W 071°19'3 8.5
2017-Oct-15 10:26N 41°44' W 071°22'4 0.2
2017-Oct-14 17:10N 41°47' W 071°23'1 7.2
2017-Oct-14 17:00N 41°46' W 071°22'4 7.5
2017-Oct-14 16:30N 41°43' W 071°20'4 8.2
2017-Oct-14 15:59N 41°39' W 071°19'45 6.8
2017-Oct-14 09:29N 41°13' W 072°07'3 6.9
2017-Oct-14 09:00N 41°13' W 072°12'4 7.1
2017-Oct-14 08:30N 41°12' W 072°16'3 6.8
2017-Oct-14 08:00N 41°11' W 072°20'4 7.0
2017-Oct-14 07:30N 41°10' W 072°25'4 7.4
2017-Oct-14 07:00N 41°09' W 072°30'4 7.5
2017-Oct-14 06:30N 41°08' W 072°35'4 8.2
2017-Oct-14 06:00N 41°07' W 072°40'48 8.9
2017-Oct-14 00:37N 40°54' W 073°41'1 8.4
2017-Oct-14 00:27N 40°53' W 073°43'4 8.2
2017-Oct-13 23:59N 40°50' W 073°46'3 5.8
2017-Oct-13 23:29N 40°48' W 073°49'3 6.9
2017-Oct-13 23:00N 40°48' W 073°53'3 4.9
2017-Oct-13 22:28N 40°47' W 073°56'3 6.1
2017-Oct-13 22:00N 40°44' W 073°58'3 6.6
2017-Oct-13 21:30N 40°42' W 074°00'4 8.0
2017-Oct-13 21:00N 40°39' W 074°05'4 8.5
2017-Oct-13 20:29N 40°39' W 074°10'2 3.8
2017-Oct-13 19:59N 40°38' W 074°12'0 0.0
2017-Oct-13 19:23N 40°38' W 074°12'0 0.0
2017-Oct-13 18:59N 40°38' W 074°12'0 0.0
2017-Oct-13 18:23N 40°38' W 074°12'0 0.0
2017-Oct-13 17:59N 40°38' W 074°12'0 0.0
2017-Oct-13 17:29N 40°38' W 074°12'0 0.0
2017-Oct-13 16:59N 40°38' W 074°12'0 0.0
2017-Oct-13 16:29N 40°38' W 074°12'0 0.0
2017-Oct-13 15:53N 40°38' W 074°12'0 0.0
2017-Oct-13 15:23N 40°38' W 074°12'0 0.0
2017-Oct-13 14:59N 40°38' W 074°12'0 0.0
2017-Oct-13 14:29N 40°38' W 074°12'0 0.0
2017-Oct-13 13:59N 40°38' W 074°12'0 0.0
2017-Oct-13 13:23N 40°38' W 074°12'0 0.0
2017-Oct-13 12:59N 40°38' W 074°12'0 0.0
2017-Oct-13 12:29N 40°38' W 074°12'0 0.0
2017-Oct-13 11:59N 40°38' W 074°12'0 0.0
2017-Oct-13 11:29N 40°38' W 074°12'0 0.0
2017-Oct-13 10:56N 40°38' W 074°12'0 0.0
2017-Oct-13 10:29N 40°38' W 074°12'0 0.0
2017-Oct-13 09:59N 40°38' W 074°12'0 0.0
2017-Oct-13 09:26N 40°38' W 074°12'0 0.0
2017-Oct-13 08:59N 40°38' W 074°12'0 0.0
2017-Oct-13 08:29N 40°38' W 074°12'0 0.0
2017-Oct-13 07:53N 40°38' W 074°12'0 0.0
2017-Oct-13 07:29N 40°38' W 074°12'0 0.0
2017-Oct-13 06:59N 40°38' W 074°12'0 0.0
2017-Oct-13 06:29N 40°38' W 074°12'0 0.0
2017-Oct-13 05:56N 40°38' W 074°12'0 0.1
2017-Oct-13 05:30N 40°38' W 074°12'0 0.0
2017-Oct-13 05:00N 40°38' W 074°12'0 0.8
2017-Oct-13 04:30N 40°37' W 074°12'4 7.4
2017-Oct-13 03:59N 40°33' W 074°14'8 0.4
2017-Oct-12 05:00N 40°29' W 074°04'2 4.9
2017-Oct-12 04:30N 40°31' W 074°03'4 7.5
2017-Oct-12 04:00N 40°35' W 074°02'4 7.4
2017-Oct-12 03:30N 40°38' W 074°02'4 7.2
2017-Oct-12 03:00N 40°42' W 074°00'3 6.3
2017-Oct-12 02:30N 40°44' W 073°58'4 7.6
2017-Oct-12 02:00N 40°47' W 073°55'4 8.4
2017-Oct-12 01:30N 40°48' W 073°50'4 7.1
2017-Oct-12 00:53N 40°51' W 073°45'  
Track history (hours):
 
Tides and Currents Weather Stations Pressure Air Temp Water Temp Dewpoint Dewpoint Depression Visibility Wind Speed Wind Dir Waves Ship Positions

Ruth M Reinauer

Owner: H.A. Reinauer, Staten Island, NY. More information available from US FCC via Universal Licensing System and Coast Guard Vessel Documentation Center.

Last reported at 2017-Oct-21 16:40 UTC. Time now 2017-Oct-22 08:28 UTC.
Position N 40°54' W 073°42'.

Length 151 m; draft 5.1 m.

Type: . MMSI: 367390130.

Date/timePositionNaut miles runAvg speedWind from/ knotsBaromVisibWave heightAir tempDewpointWater temp
2017-Oct-21 16:40N 40°54' W 073°42'4 8.0
2017-Oct-21 16:12N 40°51' W 073°45'2 8.0
2017-Oct-21 15:58N 40°50' W 073°47'3 5.9
2017-Oct-21 15:30N 40°48' W 073°50'4 7.7
2017-Oct-21 14:56N 40°47' W 073°55'7 7.5
2017-Oct-21 14:00N 40°41' W 074°01'3 6.9
2017-Oct-21 13:30N 40°38' W 074°03'4 7.3
2017-Oct-21 13:00N 40°35' W 074°02'3 7.1
2017-Oct-21 12:30N 40°32' W 074°01'4 7.5
2017-Oct-21 11:58N 40°30' W 073°56'2 3.7
2017-Oct-21 11:30N 40°28' W 073°55'2 3.0
2017-Oct-21 10:57N 40°27' W 073°55'1 2.9
2017-Oct-21 10:30N 40°25' W 073°55'1 2.5
2017-Oct-21 10:01N 40°24' W 073°55'2 3.1
2017-Oct-21 09:29N 40°22' W 073°55'2 3.5
2017-Oct-21 09:01N 40°21' W 073°55'2 3.7
2017-Oct-21 08:25N 40°19' W 073°55'22 5.7
2017-Oct-21 04:34N 39°57' W 073°56'1 8.3
2017-Oct-21 04:29N 39°56' W 073°57'5 8.3
2017-Oct-21 03:51N 39°51' W 073°57'3 8.3
2017-Oct-21 03:30N 39°48' W 073°57'4 8.3
2017-Oct-21 03:00N 39°44' W 073°59'4 8.5
2017-Oct-21 02:30N 39°40' W 074°01'4 8.5
2017-Oct-21 01:59N 39°36' W 074°04'4 8.5
2017-Oct-21 01:27N 39°32' W 074°06'59 8.1
2017-Oct-20 18:15N 38°48' W 074°57'4 8.0
2017-Oct-20 17:44N 38°49' W 075°02'3 9.7
2017-Oct-20 17:25N 38°52' W 075°04'410.0
2017-Oct-20 16:58N 38°56' W 075°06'4 9.6
2017-Oct-20 16:30N 38°60' W 075°08'5 9.1
2017-Oct-20 16:00N 39°04' W 075°11'4 8.3
2017-Oct-20 15:30N 39°08' W 075°13'4 7.7
2017-Oct-20 15:00N 39°11' W 075°16'7 6.6
2017-Oct-20 14:00N 39°16' W 075°21'3 6.1
2017-Oct-20 13:30N 39°19' W 075°24'3 6.4
2017-Oct-20 13:00N 39°21' W 075°26'3 6.9
2017-Oct-20 12:31N 39°24' W 075°29'4 7.5
2017-Oct-20 12:00N 39°26' W 075°33'4 7.9
2017-Oct-20 11:31N 39°30' W 075°33'4 8.2
2017-Oct-20 11:01N 39°34' W 075°34'2 3.2
2017-Oct-20 10:31N 39°35' W 075°36'0 0.0
2017-Oct-20 10:01N 39°35' W 075°36'0 0.0
2017-Oct-20 09:29N 39°35' W 075°36'0 0.0
2017-Oct-20 09:00N 39°35' W 075°36'0 0.0
2017-Oct-20 08:30N 39°35' W 075°36'0 0.0
2017-Oct-20 08:00N 39°35' W 075°36'0 0.0
2017-Oct-20 07:30N 39°35' W 075°36'0 0.0
2017-Oct-20 07:00N 39°35' W 075°36'0 0.0
2017-Oct-20 06:29N 39°35' W 075°36'0 0.0
2017-Oct-20 05:59N 39°35' W 075°36'0 0.0
2017-Oct-20 05:30N 39°35' W 075°36'0 0.0
2017-Oct-20 05:00N 39°35' W 075°36'0 0.0
2017-Oct-20 04:30N 39°35' W 075°36'0 0.0
2017-Oct-20 03:59N 39°35' W 075°36'0 0.0
2017-Oct-20 03:29N 39°35' W 075°36'0 0.0
2017-Oct-20 03:00N 39°35' W 075°36'0 0.0
2017-Oct-20 02:30N 39°35' W 075°36'0 0.0
2017-Oct-20 01:59N 39°35' W 075°36'0 0.0
2017-Oct-20 01:29N 39°35' W 075°36'0 0.0
2017-Oct-20 01:00N 39°35' W 075°36'0 0.0
2017-Oct-20 00:30N 39°35' W 075°36'0 0.0
2017-Oct-20 00:00N 39°35' W 075°36'0 0.0
2017-Oct-19 23:30N 39°35' W 075°36'0 0.0
2017-Oct-19 23:00N 39°35' W 075°36'0 0.0
2017-Oct-19 22:30N 39°35' W 075°36'0 0.0
2017-Oct-19 22:00N 39°35' W 075°36'0 0.0
2017-Oct-19 21:30N 39°35' W 075°36'0 0.0
2017-Oct-19 21:00N 39°35' W 075°36'0 0.0
2017-Oct-19 20:30N 39°35' W 075°36'0 0.0
2017-Oct-19 20:00N 39°35' W 075°36'0 0.0
2017-Oct-19 19:30N 39°35' W 075°36'0 0.0
2017-Oct-19 19:00N 39°35' W 075°36'0 0.0
2017-Oct-19 18:30N 39°35' W 075°36'0 0.0
2017-Oct-19 18:00N 39°35' W 075°36'0 0.0
2017-Oct-19 17:30N 39°35' W 075°36'0 0.0
2017-Oct-19 16:57N 39°35' W 075°36'0 0.0
2017-Oct-19 16:30N 39°35' W 075°36'0 0.0
2017-Oct-19 16:00N 39°35' W 075°36'0 0.0
2017-Oct-19 15:30N 39°35' W 075°36'0 0.0
2017-Oct-19 15:00N 39°35' W 075°36'0 0.0
2017-Oct-19 14:29N 39°35' W 075°36'0 0.0
2017-Oct-19 13:59N 39°35' W 075°36'0 0.0
2017-Oct-19 13:29N 39°35' W 075°36'0 0.0
2017-Oct-19 12:59N 39°35' W 075°36'0 0.0
2017-Oct-19 12:29N 39°35' W 075°36'0 0.0
2017-Oct-19 11:59N 39°35' W 075°36'0 0.0
2017-Oct-19 11:29N 39°35' W 075°36'0 0.0
2017-Oct-19 11:00N 39°35' W 075°36'0 0.0
2017-Oct-19 10:29N 39°35' W 075°36'0 0.0
2017-Oct-19 09:59N 39°35' W 075°36'0 0.0
2017-Oct-19 09:29N 39°35' W 075°36'0 0.0
2017-Oct-19 08:59N 39°35' W 075°36'1 2.7
2017-Oct-19 08:31N 39°34' W 075°34'3 5.2
2017-Oct-19 08:00N 39°32' W 075°33'2 4.5
2017-Oct-19 07:31N 39°30' W 075°33'3 5.5
2017-Oct-19 07:00N 39°27' W 075°33'3 6.3
2017-Oct-19 06:31N 39°25' W 075°31'4 7.1
2017-Oct-19 06:01N 39°22' W 075°28'4 7.4
2017-Oct-19 05:31N 39°20' W 075°25'4 7.8
2017-Oct-19 05:00N 39°17' W 075°21'4 8.1
2017-Oct-19 04:30N 39°14' W 075°18'4 8.3
2017-Oct-19 04:00N 39°10' W 075°15'4 8.6
2017-Oct-19 03:30N 39°06' W 075°12'4 8.6
2017-Oct-19 03:00N 39°02' W 075°10'4 8.7
2017-Oct-19 02:30N 38°58' W 075°08'4 8.9
2017-Oct-19 02:00N 38°54' W 075°05'5 9.0
2017-Oct-19 01:30N 38°50' W 075°03'4 8.4
2017-Oct-19 01:00N 38°48' W 074°58'5 9.1
2017-Oct-19 00:27N 38°50' W 074°52'8 8.6
2017-Oct-18 23:28N 38°56' W 074°45'4 8.9
2017-Oct-18 23:00N 38°59' W 074°41'5 8.9
2017-Oct-18 22:26N 39°03' W 074°36'32 8.8
2017-Oct-18 18:51N 39°27' W 074°10'4 8.8
2017-Oct-18 18:22N 39°30' W 074°06'6 8.9
2017-Oct-18 17:42N 39°34' W 074°01'2 8.9
2017-Oct-18 17:30N 39°35' W 073°59'6 9.0
2017-Oct-18 16:48N 39°39' W 073°53'212 7.7
2017-Oct-17 13:30N 42°12' W 070°38'4 9.1
2017-Oct-17 13:00N 42°16' W 070°41'4 8.0
2017-Oct-17 12:30N 42°18' W 070°45'4 8.4
2017-Oct-17 12:00N 42°19' W 070°50'4 7.5
2017-Oct-17 11:31N 42°19' W 070°55'4 7.1
2017-Oct-17 11:01N 42°15' W 070°57'2 3.5
2017-Oct-17 10:30N 42°15' W 070°59'0 0.0
2017-Oct-17 09:46N 42°15' W 070°59'0 0.0
2017-Oct-17 09:25N 42°15' W 070°59'0 0.0
2017-Oct-17 08:25N 42°15' W 070°59'0 0.0
2017-Oct-17 07:55N 42°15' W 070°59'0 0.0
2017-Oct-17 07:25N 42°15' W 070°59'0 0.0
2017-Oct-17 06:55N 42°15' W 070°59'0 0.0
2017-Oct-17 06:31N 42°15' W 070°59'0 0.0
2017-Oct-17 05:55N 42°15' W 070°59'0 0.0
2017-Oct-17 05:13N 42°15' W 070°59'0 0.0
2017-Oct-17 05:01N 42°15' W 070°59'0 0.0
2017-Oct-17 02:58N 42°15' W 070°59'0 0.0
2017-Oct-17 02:22N 42°15' W 070°59'0 0.0
2017-Oct-17 01:58N 42°15' W 070°59'0 0.0
2017-Oct-17 01:28N 42°15' W 070°59'0 0.0
2017-Oct-17 00:58N 42°15' W 070°59'0 0.0
2017-Oct-17 00:28N 42°15' W 070°59'0 0.0
2017-Oct-16 23:58N 42°15' W 070°59'0 0.0
2017-Oct-16 23:28N 42°15' W 070°59'0 0.0
2017-Oct-16 22:58N 42°15' W 070°59'0 0.0
2017-Oct-16 22:28N 42°15' W 070°59'0 0.0
2017-Oct-16 21:52N 42°15' W 070°59'0 0.0
2017-Oct-16 21:22N 42°15' W 070°59'0 0.0
2017-Oct-16 20:58N 42°15' W 070°59'0 0.0
2017-Oct-16 20:28N 42°15' W 070°59'0 0.0
2017-Oct-16 19:58N 42°15' W 070°59'0 0.0
2017-Oct-16 19:22N 42°15' W 070°59'0 0.0
2017-Oct-16 18:58N 42°15' W 070°59'0 0.0
2017-Oct-16 18:28N 42°15' W 070°59'0 0.0
2017-Oct-16 17:58N 42°15' W 070°59'0 0.0
2017-Oct-16 17:04N 42°15' W 070°59'0 0.1
2017-Oct-16 16:58N 42°15' W 070°59'0 0.0
2017-Oct-16 16:28N 42°15' W 070°59'0 0.0
2017-Oct-16 15:58N 42°15' W 070°59'0 0.0
2017-Oct-16 15:16N 42°15' W 070°59'0 0.0
2017-Oct-16 14:55N 42°15' W 070°59'0 0.0
2017-Oct-16 14:01N 42°15' W 070°59'0 0.0
2017-Oct-16 13:28N 42°15' W 070°59'0 0.0
2017-Oct-16 13:00N 42°15' W 070°59'0 0.8
2017-Oct-16 12:30N 42°15' W 070°59'2 4.0
2017-Oct-16 12:00N 42°16' W 070°56'3 6.6
2017-Oct-16 11:30N 42°19' W 070°55'3 5.8
2017-Oct-16 11:00N 42°19' W 070°51'0 0.1
2017-Oct-16 10:30N 42°19' W 070°51'0 0.0
2017-Oct-16 10:00N 42°19' W 070°51'0 0.2
2017-Oct-16 09:30N 42°19' W 070°51'0 0.1
2017-Oct-16 09:00N 42°19' W 070°51'0 0.0
2017-Oct-16 08:30N 42°19' W 070°51'0 0.1
2017-Oct-16 08:00N 42°19' W 070°51'0 0.0
2017-Oct-16 07:30N 42°19' W 070°51'0 0.0
2017-Oct-16 07:00N 42°19' W 070°51'0 0.0
2017-Oct-16 06:30N 42°19' W 070°51'0 0.0
2017-Oct-16 06:00N 42°19' W 070°51'0 0.1
2017-Oct-16 05:30N 42°19' W 070°51'0 0.1
2017-Oct-16 05:00N 42°19' W 070°51'0 0.0
2017-Oct-16 04:30N 42°19' W 070°51'0 0.1
2017-Oct-16 04:00N 42°19' W 070°51'0 0.0
2017-Oct-16 03:31N 42°19' W 070°51'0 0.1
2017-Oct-16 03:00N 42°19' W 070°51'0 0.1
2017-Oct-16 02:30N 42°19' W 070°51'0 0.0
2017-Oct-16 02:01N 42°19' W 070°51'0 0.0
2017-Oct-16 01:30N 42°19' W 070°51'0 0.1
2017-Oct-16 01:00N 42°19' W 070°51'0 0.1
2017-Oct-16 00:30N 42°19' W 070°51'0 0.1
2017-Oct-16 00:00N 42°19' W 070°51'0 0.1
2017-Oct-15 23:30N 42°19' W 070°51'0 0.1
2017-Oct-15 23:00N 42°19' W 070°51'1 2.2
2017-Oct-15 22:30N 42°19' W 070°49'4 8.7
2017-Oct-15 22:00N 42°17' W 070°44'4 7.9
2017-Oct-15 21:31N 42°14' W 070°40'58 6.5
2017-Oct-15 12:38N 41°25' W 071°22'13 9.2
2017-Oct-15 11:14N 41°38' W 071°18'4 8.6
2017-Oct-15 10:48N 41°41' W 071°19'3 8.5
2017-Oct-15 10:26N 41°44' W 071°22'4 0.2
2017-Oct-14 17:10N 41°47' W 071°23'1 7.2
2017-Oct-14 17:00N 41°46' W 071°22'4 7.5
2017-Oct-14 16:30N 41°43' W 071°20'4 8.2
2017-Oct-14 15:59N 41°39' W 071°19'45 6.8
2017-Oct-14 09:29N 41°13' W 072°07'3 6.9
2017-Oct-14 09:00N 41°13' W 072°12'4 7.1
2017-Oct-14 08:30N 41°12' W 072°16'3 6.8
2017-Oct-14 08:00N 41°11' W 072°20'4 7.0
2017-Oct-14 07:30N 41°10' W 072°25'4 7.4
2017-Oct-14 07:00N 41°09' W 072°30'4 7.5
2017-Oct-14 06:30N 41°08' W 072°35'4 8.2
2017-Oct-14 06:00N 41°07' W 072°40'48 8.9
2017-Oct-14 00:37N 40°54' W 073°41'1 8.4
2017-Oct-14 00:27N 40°53' W 073°43'4 8.2
2017-Oct-13 23:59N 40°50' W 073°46'3 5.8
2017-Oct-13 23:29N 40°48' W 073°49'3 6.9
2017-Oct-13 23:00N 40°48' W 073°53'3 4.9
2017-Oct-13 22:28N 40°47' W 073°56'3 6.1
2017-Oct-13 22:00N 40°44' W 073°58'3 6.6
2017-Oct-13 21:30N 40°42' W 074°00'4 8.0
2017-Oct-13 21:00N 40°39' W 074°05'4 8.5
2017-Oct-13 20:29N 40°39' W 074°10'2 3.8
2017-Oct-13 19:59N 40°38' W 074°12'0 0.0
2017-Oct-13 19:23N 40°38' W 074°12'0 0.0
2017-Oct-13 18:59N 40°38' W 074°12'0 0.0
2017-Oct-13 18:23N 40°38' W 074°12'0 0.0
2017-Oct-13 17:59N 40°38' W 074°12'0 0.0
2017-Oct-13 17:29N 40°38' W 074°12'0 0.0
2017-Oct-13 16:59N 40°38' W 074°12'0 0.0
2017-Oct-13 16:29N 40°38' W 074°12'0 0.0
2017-Oct-13 15:53N 40°38' W 074°12'0 0.0
2017-Oct-13 15:23N 40°38' W 074°12'0 0.0
2017-Oct-13 14:59N 40°38' W 074°12'0 0.0
2017-Oct-13 14:29N 40°38' W 074°12'0 0.0
2017-Oct-13 13:59N 40°38' W 074°12'0 0.0
2017-Oct-13 13:23N 40°38' W 074°12'0 0.0
2017-Oct-13 12:59N 40°38' W 074°12'0 0.0
2017-Oct-13 12:29N 40°38' W 074°12'0 0.0
2017-Oct-13 11:59N 40°38' W 074°12'0 0.0
2017-Oct-13 11:29N 40°38' W 074°12'0 0.0
2017-Oct-13 10:56N 40°38' W 074°12'0 0.0
2017-Oct-13 10:29N 40°38' W 074°12'0 0.0
2017-Oct-13 09:59N 40°38' W 074°12'0 0.0
2017-Oct-13 09:26N 40°38' W 074°12'0 0.0
2017-Oct-13 08:59N 40°38' W 074°12'0 0.0
2017-Oct-13 08:29N 40°38' W 074°12'0 0.0
2017-Oct-13 07:53N 40°38' W 074°12'0 0.0
2017-Oct-13 07:29N 40°38' W 074°12'0 0.0
2017-Oct-13 06:59N 40°38' W 074°12'0 0.0
2017-Oct-13 06:29N 40°38' W 074°12'0 0.0
2017-Oct-13 05:56N 40°38' W 074°12'0 0.1
2017-Oct-13 05:30N 40°38' W 074°12'0 0.0
2017-Oct-13 05:00N 40°38' W 074°12'0 0.8
2017-Oct-13 04:30N 40°37' W 074°12'4 7.4
2017-Oct-13 03:59N 40°33' W 074°14'8 0.4
2017-Oct-12 05:00N 40°29' W 074°04'2 4.9
2017-Oct-12 04:30N 40°31' W 074°03'4 7.5
2017-Oct-12 04:00N 40°35' W 074°02'4 7.4
2017-Oct-12 03:30N 40°38' W 074°02'4 7.2
2017-Oct-12 03:00N 40°42' W 074°00'3 6.3
2017-Oct-12 02:30N 40°44' W 073°58'4 7.6
2017-Oct-12 02:00N 40°47' W 073°55'4 8.4
2017-Oct-12 01:30N 40°48' W 073°50'4 7.1
2017-Oct-12 00:53N 40°51' W 073°45'  

Dump ship's entire track history